Time;durP1;ratioP1;P1;durP2;ratioP2;P2;SDS_P1;SDS_P2;PMS_P1;PMS_P2;Temp;Humidity;BMP_temperature;BMP_pressure;BME280_temperature;BME280_humidity;BME280_pressure;Samples;Min_cycle;Max_cycle;Signal;HPM_P1;HPM_P2
2022/08/13 00:00:34;;;;;;;2.20;1.90;;;17.50;89.00;;;;;;5067836;28;20964;-88
2022/08/13 00:03:00;;;;;;;3.73;1.70;;;19.60;90.50;;;;;;5060384;28;20546;-89
2022/08/13 00:05:26;;;;;;;2.03;1.83;;;19.90;90.10;;;;;;5065142;28;20501;-88
2022/08/13 00:07:52;;;;;;;3.23;1.50;;;17.50;90.80;;;;;;5066591;28;20530;-88
2022/08/13 00:10:23;;;;;;;2.00;1.63;;;;;;;;;;5061196;28;20453;-88
2022/08/13 00:12:58;;;;;;;1.60;1.40;;;17.50;91.00;;;;;;5060990;28;20414;-88
2022/08/13 00:15:35;;;;;;;4.70;1.50;;;17.40;92.00;;;;;;5066485;28;21737;-86
2022/08/13 00:18:05;;;;;;;1.67;1.57;;;17.30;92.50;;;;;;5068643;28;20418;-86
2022/08/13 00:20:38;;;;;;;3.83;1.80;;;17.20;92.80;;;;;;5070354;28;20442;-85
2022/08/13 00:23:09;;;;;;;1.80;1.70;;;17.20;94.00;;;;;;5071026;28;20430;-84
2022/08/13 00:25:35;;;;;;;1.57;1.37;;;16.80;96.40;;;;;;5063399;28;20884;-84
2022/08/13 00:28:04;;;;;;;1.83;1.57;;;16.80;96.80;;;;;;5066383;28;20492;-84
2022/08/13 00:30:33;;;;;;;1.80;1.60;;;16.70;97.70;;;;;;5061647;28;20434;-84
2022/08/13 00:33:12;;;;;;;2.90;1.33;;;16.70;98.20;;;;;;5061225;28;20431;-84
2022/08/13 00:35:50;;;;;;;1.80;1.40;;;16.60;98.50;;;;;;5066198;28;20509;-84
2022/08/13 00:38:22;;;;;;;4.90;1.90;;;16.50;99.00;;;;;;5059016;28;20451;-84
2022/08/13 00:40:54;;;;;;;1.60;1.50;;;16.50;99.90;;;;;;5057091;28;20897;-85
2022/08/13 00:43:20;;;;;;;3.00;1.33;;;16.50;99.90;;;;;;5057767;28;20446;-84
2022/08/13 00:45:47;;;;;;;2.43;1.90;;;16.50;99.90;;;;;;5059263;28;20934;-84
2022/08/13 00:50:58;;;;;;;1.80;1.40;;;16.40;99.90;;;;;;5059655;28;20431;-84
2022/08/13 00:53:24;;;;;;;1.80;1.70;;;16.40;99.90;;;;;;5067332;28;20504;-84
2022/08/13 00:55:55;;;;;;;1.60;1.50;;;16.40;99.90;;;;;;5058258;28;20512;-84
2022/08/13 00:58:22;;;;;;;3.17;1.70;;;16.30;99.90;;;;;;5063193;28;20527;-84
2022/08/13 01:00:51;;;;;;;2.97;1.83;;;16.30;99.90;;;;;;5055350;28;20438;-84
2022/08/13 01:03:18;;;;;;;2.27;2.07;;;16.30;99.90;;;;;;5056373;28;20435;-84
2022/08/13 01:05:46;;;;;;;2.83;1.67;;;16.30;99.90;;;;;;5072140;28;20528;-85
2022/08/13 01:08:16;;;;;;;3.43;1.60;;;16.30;99.90;;;;;;5057933;28;20432;-84
2022/08/13 01:10:42;;;;;;;4.60;2.27;;;16.30;99.90;;;;;;5056430;28;20430;-85
2022/08/13 01:13:11;;;;;;;2.80;1.47;;;16.20;99.90;;;;;;5056937;28;20804;-86
2022/08/13 01:15:39;;;;;;;2.20;2.00;;;16.10;99.90;;;;;;5059564;28;20454;-87
2022/08/13 01:18:07;;;;;;;2.63;2.07;;;16.00;99.90;;;;;;5075751;28;20488;-88
2022/08/13 01:20:44;;;;;;;1.70;1.60;;;16.00;99.90;;;;;;5059991;28;20526;-87
2022/08/13 01:23:10;;;;;;;3.05;1.67;;;15.90;99.90;;;;;;5065074;28;20603;-86
2022/08/13 01:25:36;;;;;;;2.10;1.85;;;15.90;99.90;;;;;;5063687;28;20216;-86
2022/08/13 01:28:02;;;;;;;1.88;1.58;;;15.80;99.90;;;;;;5063821;28;20177;-85
2022/08/13 01:30:32;;;;;;;2.23;1.90;;;15.70;99.90;;;;;;5058739;28;20632;-86
2022/08/13 01:33:02;;;;;;;1.57;1.47;;;15.70;99.90;;;;;;5057859;28;20423;-86
2022/08/13 01:35:28;;;;;;;2.40;1.53;;;15.60;99.90;;;;;;5063140;28;20459;-86
2022/08/13 01:37:57;;;;;;;3.08;2.00;;;15.60;99.90;;;;;;5057176;28;20519;-86
2022/08/13 01:40:23;;;;;;;2.30;1.90;;;15.40;99.90;;;;;;5066125;28;20181;-86
2022/08/13 01:42:50;;;;;;;2.30;2.10;;;;;;;;;;5071332;28;20438;-86
2022/08/13 01:45:17;;;;;;;1.98;1.80;;;15.20;99.90;;;;;;5058411;28;20208;-86
2022/08/13 01:50:31;;;;;;;4.10;1.80;;;15.10;99.90;;;;;;5061798;28;20179;-87
2022/08/13 01:53:05;;;;;;;3.90;1.80;;;15.10;99.90;;;;;;5067547;28;20272;-87
2022/08/13 01:55:38;;;;;;;3.88;2.22;;;15.00;99.90;;;;;;5063672;28;20197;-87
2022/08/13 01:58:18;;;;;;;2.65;2.10;;;15.00;99.90;;;;;;5069117;28;20688;-87
2022/08/13 02:00:49;;;;;;;2.67;1.92;;;14.90;99.90;;;;;;5059920;28;20172;-88
2022/08/13 02:03:17;;;;;;;1.88;1.63;;;16.00;99.90;;;;;;5067796;28;20557;-86
2022/08/13 02:05:44;;;;;;;2.75;2.13;;;14.90;99.90;;;;;;5060736;28;20235;-87
2022/08/13 02:08:12;;;;;;;2.65;1.63;;;14.80;99.90;;;;;;5066194;28;20202;-87
2022/08/13 02:10:40;;;;;;;2.03;1.85;;;14.90;99.90;;;;;;5066492;28;20207;-87
2022/08/13 02:13:13;;;;;;;3.30;2.05;;;14.60;99.90;;;;;;5061234;28;21050;-89
2022/08/13 02:15:40;;;;;;;2.75;1.60;;;14.90;99.90;;;;;;5079216;28;20295;-89
2022/08/13 02:18:07;;;;;;;2.10;1.95;;;14.90;99.90;;;;;;5068901;28;20193;-89
2022/08/13 02:20:34;;;;;;;1.95;1.75;;;14.80;99.90;;;;;;5063651;28;20268;-84
2022/08/13 02:23:00;;;;;;;1.75;1.65;;;14.70;99.90;;;;;;5062769;28;20344;-85
2022/08/13 02:25:28;;;;;;;2.50;1.67;;;14.70;99.90;;;;;;5063709;28;20212;-85
2022/08/13 02:27:55;;;;;;;2.00;1.80;;;14.70;99.90;;;;;;5060839;28;20180;-85
2022/08/13 02:30:22;;;;;;;2.95;2.33;;;14.70;99.90;;;;;;5066139;28;20687;-86
2022/08/13 02:32:49;;;;;;;3.13;2.00;;;14.80;99.90;;;;;;5061489;28;20181;-86
2022/08/13 02:35:18;;;;;;;2.25;1.90;;;;;;;;;;5063156;28;20210;-89
2022/08/13 02:37:44;;;;;;;2.80;2.38;;;14.70;99.90;;;;;;5066702;28;20472;-86
2022/08/13 02:42:59;;;;;;;3.47;2.17;;;14.70;99.90;;;;;;5063252;28;20203;-86
2022/08/13 02:45:27;;;;;;;3.50;1.70;;;14.60;99.90;;;;;;5063654;28;20213;-87
2022/08/13 02:47:53;;;;;;;2.80;2.10;;;14.60;99.90;;;;;;5060979;28;20176;-87
2022/08/13 02:50:21;;;;;;;3.47;1.88;;;14.60;99.90;;;;;;5063362;28;20193;-86
2022/08/13 02:52:51;;;;;;;2.22;2.00;;;14.60;99.90;;;;;;5062901;28;20188;-86
2022/08/13 02:55:18;;;;;;;1.90;1.65;;;14.60;99.90;;;;;;5062628;28;20755;-87
2022/08/13 02:57:44;;;;;;;2.58;2.05;;;14.60;99.90;;;;;;5057738;28;20196;-88
2022/08/13 03:00:11;;;;;;;2.30;2.00;;;14.60;99.90;;;;;;5062516;28;20291;-87
2022/08/13 03:02:39;;;;;;;3.58;1.55;;;14.60;99.90;;;;;;5061681;28;20426;-86
2022/08/13 03:05:05;;;;;;;3.95;2.20;;;14.60;99.90;;;;;;5062325;28;20205;-87
2022/08/13 03:07:30;;;;;;;2.30;2.10;;;14.50;99.90;;;;;;5069226;28;20237;-87
2022/08/13 03:09:56;;;;;;;3.23;1.90;;;14.60;99.90;;;;;;5061790;28;20216;-86
2022/08/13 03:12:22;;;;;;;2.13;1.93;;;14.50;99.90;;;;;;5065969;28;20288;-87
2022/08/13 03:14:49;;;;;;;1.80;1.70;;;14.40;99.90;;;;;;5101109;22;20806;-87
2022/08/13 03:17:15;;;;;;;4.00;2.47;;;14.50;99.90;;;;;;5070957;28;20212;-86
2022/08/13 03:19:40;;;;;;;3.83;1.90;;;14.50;99.90;;;;;;5091390;28;20241;-84
2022/08/13 03:22:06;;;;;;;2.83;2.10;;;14.50;99.90;;;;;;5068998;28;20178;-83
2022/08/13 03:24:33;;;;;;;4.23;2.30;;;14.40;99.90;;;;;;5082495;28;20219;-83
2022/08/13 03:27:00;;;;;;;3.53;2.50;;;14.40;99.90;;;;;;5070000;28;20186;-86
2022/08/13 03:29:26;;;;;;;2.22;2.03;;;14.40;99.90;;;;;;5085843;28;20211;-83
2022/08/13 03:31:52;;;;;;;2.40;1.75;;;14.30;99.90;;;;;;5067460;28;20176;-84
2022/08/13 03:34:20;;;;;;;2.90;1.77;;;14.30;99.90;;;;;;5066345;28;20319;-82
2022/08/13 03:36:45;;;;;;;3.55;2.40;;;14.30;99.90;;;;;;5077970;28;20443;-83
2022/08/13 03:39:11;;;;;;;4.93;2.03;;;14.40;99.90;;;;;;5061553;28;20676;-85
2022/08/13 03:41:37;;;;;;;3.63;2.13;;;14.40;99.90;;;;;;5071631;28;20236;-83
2022/08/13 03:44:05;;;;;;;2.27;2.07;;;14.50;99.90;;;;;;5082634;28;20466;-85
2022/08/13 03:46:31;;;;;;;2.30;2.10;;;14.50;99.90;;;;;;5082812;28;20433;-82
2022/08/13 03:48:56;;;;;;;2.17;1.98;;;16.10;99.90;;;;;;5082960;28;20178;-83
2022/08/13 03:51:23;;;;;;;2.40;2.20;;;14.30;99.90;;;;;;5080370;28;20255;-82
2022/08/13 03:53:50;;;;;;;3.28;2.42;;;14.30;99.90;;;;;;5070360;28;20235;-83
2022/08/13 03:56:18;;;;;;;4.13;2.17;;;14.30;99.90;;;;;;5062579;28;20206;-85
2022/08/13 03:58:45;;;;;;;2.60;1.75;;;14.20;99.90;;;;;;5079336;28;20234;-83
2022/08/13 04:01:11;;;;;;;2.88;2.60;;;14.20;99.90;;;;;;5080514;28;20187;-86
2022/08/13 04:03:40;;;;;;;3.57;2.17;;;14.20;99.90;;;;;;5068824;28;20220;-84
2022/08/13 04:06:16;;;;;;;2.13;1.73;;;14.30;99.90;;;;;;5090406;28;20426;-84
2022/08/13 04:08:44;;;;;;;2.45;1.95;;;14.30;99.90;;;;;;5062480;28;20184;-85
2022/08/13 04:11:14;;;;;;;2.35;2.08;;;14.30;99.90;;;;;;5082998;28;20182;-85
2022/08/13 04:13:41;;;;;;;8.05;3.78;;;14.40;99.90;;;;;;5084185;28;20231;-83
2022/08/13 04:16:09;;;;;;;2.45;2.03;;;14.40;99.90;;;;;;5067765;28;20454;-84
2022/08/13 04:18:38;;;;;;;5.85;2.30;;;14.40;99.90;;;;;;5055384;28;20184;-83
2022/08/13 04:21:06;;;;;;;2.40;2.20;;;14.30;99.90;;;;;;5058397;28;20277;-82
2022/08/13 04:23:34;;;;;;;2.95;2.47;;;14.30;99.90;;;;;;5043882;28;20299;-84
2022/08/13 04:26:00;;;;;;;2.58;2.35;;;14.40;99.90;;;;;;5070559;28;20242;-85
2022/08/13 04:28:26;;;;;;;4.68;2.20;;;14.60;99.90;;;;;;5068762;28;20563;-83
2022/08/13 04:30:52;;;;;;;2.10;1.90;;;14.90;99.90;;;;;;5062561;28;20263;-86
2022/08/13 04:33:18;;;;;;;3.78;2.30;;;15.40;99.90;;;;;;5063766;28;20195;-87
2022/08/13 04:35:45;;;;;;;2.40;2.20;;;16.30;99.90;;;;;;5067733;28;20685;-88
2022/08/13 04:38:12;;;;;;;3.30;2.07;;;17.10;99.90;;;;;;5078700;28;20606;-87
2022/08/13 04:40:40;;;;;;;5.13;2.23;;;18.20;99.90;;;;;;5059752;28;20410;-85
2022/08/13 04:43:07;;;;;;;4.33;2.10;;;19.30;99.90;;;;;;5076988;28;20446;-85
2022/08/13 04:45:34;;;;;;;2.50;2.10;;;20.10;99.90;;;;;;5095415;28;20967;-88
2022/08/13 04:48:04;;;;;;;3.13;2.03;;;20.90;99.80;;;;;;5096509;28;20846;-86
2022/08/13 04:50:34;;;;;;;3.20;1.80;;;21.50;95.90;;;;;;5078349;28;20393;-87
2022/08/13 04:53:02;;;;;;;3.23;1.87;;;22.70;95.00;;;;;;5078531;28;20410;-86
2022/08/13 04:55:28;;;;;;;2.60;2.17;;;24.10;92.10;;;;;;5079438;28;21221;-86
2022/08/13 04:57:54;;;;;;;2.33;2.13;;;25.30;81.60;;;;;;5078323;28;20418;-85
2022/08/13 05:00:24;;;;;;;2.10;1.80;;;25.40;75.50;;;;;;5072452;28;20435;-85
2022/08/13 05:02:52;;;;;;;4.57;2.03;;;26.30;74.60;;;;;;5084958;28;20704;-87
2022/08/13 05:05:21;;;;;;;2.10;1.90;;;27.60;69.20;;;;;;5073346;28;20913;-86
2022/08/13 05:07:52;;;;;;;2.10;2.00;;;29.00;62.40;;;;;;5072643;28;20427;-86
2022/08/13 05:10:19;;;;;;;3.23;1.80;;;30.20;57.40;;;;;;5085328;28;20431;-87
2022/08/13 05:12:45;;;;;;;2.00;1.90;;;31.40;54.30;;;;;;5084431;28;20425;-87
2022/08/13 05:15:12;;;;;;;2.73;2.17;;;31.90;50.30;;;;;;5088260;28;20434;-87
2022/08/13 05:17:38;;;;;;;10.10;2.20;;;31.50;49.50;;;;;;5069978;28;20171;-86
2022/08/13 05:20:04;;;;;;;3.10;2.57;;;30.80;48.90;;;;;;5078316;28;20447;-88
2022/08/13 05:22:30;;;;;;;3.03;2.50;;;31.20;50.10;;;;;;5076268;28;20193;-87
2022/08/13 05:24:56;;;;;;;3.87;2.37;;;32.30;47.20;;;;;;5078306;28;20449;-85
2022/08/13 05:27:22;;;;;;;2.40;2.20;;;33.20;46.10;;;;;;5081725;28;20226;-87
2022/08/13 05:29:47;;;;;;;2.63;2.43;;;34.60;44.70;;;;;;5065130;28;20418;-84
2022/08/13 05:32:13;;;;;;;9.20;3.80;;;35.80;41.60;;;;;;5065438;28;20198;-86
2022/08/13 05:34:39;;;;;;;3.90;3.50;;;36.60;39.40;;;;;;5072099;28;20210;-87
2022/08/13 05:37:06;;;;;;;3.63;3.43;;;37.30;37.20;;;;;;5081825;28;20665;-87
2022/08/13 05:39:32;;;;;;;6.90;4.30;;;38.10;35.90;;;;;;5069631;28;20521;-88
2022/08/13 05:41:58;;;;;;;4.53;4.30;;;38.70;34.60;;;;;;5059945;28;20417;-88
2022/08/13 05:44:24;;;;;;;5.43;4.20;;;37.50;32.90;;;;;;5058869;28;20509;-87
2022/08/13 05:46:50;;;;;;;4.50;4.27;;;37.20;34.20;;;;;;5058372;28;20208;-88
2022/08/13 05:49:16;;;;;;;4.97;4.67;;;37.60;34.40;;;;;;5060637;28;20408;-88
2022/08/13 05:51:44;;;;;;;4.80;4.50;;;37.00;34.90;;;;;;5063549;28;20164;-87
2022/08/13 05:54:11;;;;;;;5.93;5.53;;;38.00;34.10;;;;;;5063291;28;21113;-88
2022/08/13 05:56:37;;;;;;;8.13;6.37;;;39.30;32.80;;;;;;5062654;28;20429;-88
2022/08/13 06:03:22;;;;;;;6.97;6.57;;;40.30;31.50;;;;;;5060961;28;20420;-86
2022/08/13 06:04:41;;;;;;;7.60;7.10;;;40.50;29.80;;;;;;5090206;28;20468;-87
2022/08/13 06:07:13;;;;;;;7.03;6.60;;;41.00;29.20;;;;;;5070455;28;20422;-87
2022/08/13 06:09:39;;;;;;;8.97;8.57;;;40.70;29.40;;;;;;5074535;28;20198;-87
2022/08/13 06:12:05;;;;;;;8.37;7.67;;;40.40;28.60;;;;;;5086941;28;20412;-87
2022/08/13 06:14:33;;;;;;;8.30;7.90;;;41.20;28.70;;;;;;5078436;28;20592;-87
2022/08/13 06:17:00;;;;;;;9.10;8.63;;;41.20;28.60;;;;;;5083451;28;20505;-88
2022/08/13 06:19:28;;;;;;;8.73;8.13;;;41.70;28.70;;;;;;5082637;28;20429;-86
2022/08/13 06:22:01;;;;;;;8.30;7.90;;;42.30;28.00;;;;;;5086830;28;20447;-86
2022/08/13 06:24:27;;;;;;;10.53;9.87;;;43.20;27.80;;;;;;5079222;28;20522;-86
2022/08/13 06:26:53;;;;;;;11.00;10.37;;;43.70;26.90;;;;;;5079435;28;20410;-86
2022/08/13 06:29:20;;;;;;;9.23;8.73;;;44.30;26.40;;;;;;5081716;28;20717;-88
2022/08/13 06:31:48;;;;;;;10.80;10.20;;;45.10;26.00;;;;;;5065769;28;20180;-84
2022/08/13 06:34:13;;;;;;;10.07;9.57;;;45.40;25.30;;;;;;5069332;28;20438;-86
2022/08/13 06:36:39;;;;;;;10.10;9.70;;;45.00;25.30;;;;;;5079744;28;20413;-87
2022/08/13 06:39:05;;;;;;;9.17;8.67;;;44.80;25.30;;;;;;5082470;28;20223;-87
2022/08/13 06:41:32;;;;;;;11.97;10.90;;;44.30;25.60;;;;;;5063770;28;20233;-88
2022/08/13 06:43:58;;;;;;;12.07;11.57;;;44.70;25.60;;;;;;5079235;28;20485;-87
2022/08/13 06:46:26;;;;;;;12.10;11.20;;;45.00;25.10;;;;;;5079779;28;21024;-87
2022/08/13 06:48:53;;;;;;;10.43;10.03;;;44.40;25.10;;;;;;5061557;28;20642;-87
2022/08/13 06:51:20;;;;;;;10.23;9.53;;;43.30;26.00;;;;;;5062650;28;20502;-86
2022/08/13 06:53:46;;;;;;;10.20;9.70;;;43.40;25.70;;;;;;5080497;28;20454;-88
2022/08/13 06:56:17;;;;;;;11.37;10.37;;;43.40;25.80;;;;;;5081699;28;20399;-88
2022/08/13 06:58:45;;;;;;;9.90;9.23;;;44.00;25.90;;;;;;5062278;28;20410;-86
2022/08/13 07:01:17;;;;;;;9.93;9.43;;;44.60;25.90;;;;;;5079986;28;20409;-85
2022/08/13 07:03:43;;;;;;;9.80;9.40;;;44.30;25.20;;;;;;5085952;28;20441;-87
2022/08/13 07:06:17;;;;;;;10.60;10.03;;;43.70;25.60;;;;;;5081625;28;20429;-88
2022/08/13 07:08:44;;;;;;;9.80;9.40;;;43.50;25.70;;;;;;5098667;28;20417;-86
2022/08/13 07:11:22;;;;;;;9.53;9.03;;;44.10;25.70;;;;;;5082042;28;20477;-86
2022/08/13 07:13:52;;;;;;;9.47;9.07;;;44.50;25.10;;;;;;5081264;28;20949;-87
2022/08/13 07:16:21;;;;;;;8.70;8.20;;;44.40;25.20;;;;;;5099457;28;20741;-87
2022/08/13 07:18:49;;;;;;;9.20;8.70;;;43.50;25.60;;;;;;5081379;28;20480;-88
2022/08/13 07:21:19;;;;;;;9.17;8.60;;;43.10;25.60;;;;;;5100175;28;20404;-87
2022/08/13 07:23:45;;;;;;;10.90;10.20;;;43.90;25.80;;;;;;5079558;28;21085;-87
2022/08/13 07:26:14;;;;;;;10.53;10.03;;;44.80;24.90;;;;;;5066385;28;20777;-88
2022/08/13 07:28:41;;;;;;;11.40;10.50;;;45.10;24.90;;;;;;5093303;28;20418;-87
2022/08/13 07:31:08;;;;;;;11.63;11.03;;;45.80;24.80;;;;;;5092030;28;20421;-86
2022/08/13 07:33:36;;;;;;;11.83;11.13;;;43.90;24.50;;;;;;5070489;28;20454;-86
2022/08/13 07:36:04;;;;;;;10.97;10.43;;;45.00;25.40;;;;;;5099623;28;20410;-85
2022/08/13 07:38:31;;;;;;;11.80;11.20;;;44.80;24.80;;;;;;5079753;28;20422;-85
2022/08/13 07:41:00;;;;;;;11.30;10.60;;;44.20;24.80;;;;;;5078363;28;20427;-87
2022/08/13 07:43:26;;;;;;;11.80;10.90;;;43.50;25.30;;;;;;5091586;28;21010;-87
2022/08/13 07:46:02;;;;;;;10.20;9.50;;;43.50;25.50;;;;;;5081581;28;20457;-85
2022/08/13 07:48:31;;;;;;;11.00;10.13;;;43.90;25.50;;;;;;5098846;28;20489;-87
2022/08/13 07:51:00;;;;;;;9.93;9.37;;;42.00;26.00;;;;;;5096830;28;20406;-88
2022/08/13 07:53:26;;;;;;;11.57;10.90;;;42.30;26.30;;;;;;5099259;28;20512;-87
2022/08/13 07:55:54;;;;;;;10.23;9.70;;;;;;;;;;5099124;28;20464;-85
2022/08/13 07:58:23;;;;;;;10.43;9.93;;;;;;;;;;5098066;28;20225;-86
2022/08/13 08:00:49;;;;;;;10.67;10.17;;;44.60;24.80;;;;;;5098419;28;20436;-88
2022/08/13 08:03:16;;;;;;;10.13;9.47;;;43.70;25.50;;;;;;5074216;28;20438;-87
2022/08/13 08:05:44;;;;;;;9.23;8.83;;;43.30;26.30;;;;;;5078651;28;20203;-88
2022/08/13 08:08:13;;;;;;;10.33;9.83;;;43.70;25.20;;;;;;5075675;28;20445;-87
2022/08/13 08:10:42;;;;;;;9.20;8.70;;;42.50;25.80;;;;;;5084601;28;20414;-86
2022/08/13 08:13:12;;;;;;;10.17;9.30;;;42.60;25.50;;;;;;5086249;28;20473;-87
2022/08/13 08:15:44;;;;;;;11.00;10.50;;;42.80;25.90;;;;;;5080562;28;20405;-87
2022/08/13 08:18:10;;;;;;;11.40;10.90;;;42.30;26.50;;;;;;5080155;28;20405;-87
2022/08/13 08:20:36;;;;;;;9.67;9.27;;;42.70;26.20;;;;;;5080934;28;20493;-86
2022/08/13 08:23:01;;;;;;;11.60;11.07;;;44.40;24.90;;;;;;5079894;28;20953;-87
2022/08/13 08:25:28;;;;;;;9.17;8.73;;;44.60;25.40;;;;;;5080774;28;20324;-85
2022/08/13 08:27:54;;;;;;;10.93;10.43;;;;;;;;;;5080748;28;20304;-87
2022/08/13 08:30:20;;;;;;;9.30;8.80;;;44.80;24.20;;;;;;5081669;28;20834;-87
2022/08/13 08:32:52;;;;;;;8.40;8.00;;;45.90;23.90;;;;;;5098696;28;20702;-88
2022/08/13 08:35:18;;;;;;;8.40;7.73;;;44.80;23.90;;;;;;5080614;28;20470;-87
2022/08/13 08:43:16;;;;;;;11.33;10.93;;;44.20;24.40;;;;;;5078123;28;20449;-87
2022/08/13 08:45:42;;;;;;;12.20;11.50;;;43.80;25.00;;;;;;5078682;28;20493;-87
2022/08/13 08:48:08;;;;;;;11.30;10.70;;;44.10;25.10;;;;;;5089301;28;20476;-86
2022/08/13 08:50:33;;;;;;;10.20;9.70;;;43.50;24.90;;;;;;5079607;28;20415;-86
2022/08/13 08:55:45;;;;;;;10.77;10.20;;;40.50;26.70;;;;;;5079846;28;20167;-85
2022/08/13 08:58:12;;;;;;;9.33;8.80;;;40.50;26.90;;;;;;5059495;28;20410;-86
2022/08/13 09:00:39;;;;;;;8.70;8.10;;;39.30;27.10;;;;;;5075612;28;20415;-86
2022/08/13 09:03:07;;;;;;;9.07;8.47;;;38.80;28.30;;;;;;5076934;28;20475;-87
2022/08/13 09:05:33;;;;;;;9.10;8.60;;;39.60;28.00;;;;;;5075887;28;20872;-86
2022/08/13 09:08:06;;;;;;;8.10;7.80;;;39.30;27.90;;;;;;5078678;28;20412;-87
2022/08/13 09:10:34;;;;;;;8.43;7.90;;;38.90;27.70;;;;;;5086566;28;20416;-88
2022/08/13 09:13:03;;;;;;;9.07;8.27;;;36.60;29.10;;;;;;5072922;28;20458;-87
2022/08/13 09:15:34;;;;;;;7.60;7.20;;;36.30;29.60;;;;;;5076006;28;20397;-86
2022/08/13 09:18:01;;;;;;;9.63;8.80;;;35.80;30.20;;;;;;5076342;28;20429;-86
2022/08/13 09:20:28;;;;;;;7.50;7.10;;;36.10;30.80;;;;;;5059170;28;20461;-82
2022/08/13 09:23:14;;;;;;;8.20;7.70;;;38.80;28.80;;;;;;5057306;28;20431;-83
2022/08/13 09:25:44;;;;;;;8.50;7.90;;;38.90;28.80;;;;;;5059420;28;20522;-82
2022/08/13 09:28:10;;;;;;;8.70;8.30;;;39.10;28.60;;;;;;5077974;28;20398;-84
2022/08/13 09:30:37;;;;;;;8.60;7.90;;;37.60;28.70;;;;;;5076233;28;20409;-86
2022/08/13 09:33:03;;;;;;;8.10;7.70;;;37.60;29.80;;;;;;5077923;28;20251;-89
2022/08/13 09:35:31;;;;;;;9.57;8.97;;;37.90;29.30;;;;;;5082825;28;20410;-86
2022/08/13 09:37:58;;;;;;;8.03;7.63;;;38.10;28.50;;;;;;5076165;28;20500;-87
2022/08/13 09:40:27;;;;;;;9.40;8.60;;;38.30;29.10;;;;;;5087684;28;20947;-87
2022/08/13 09:42:57;;;;;;;9.83;9.13;;;39.60;27.40;;;;;;5088193;28;20510;-85
2022/08/13 09:45:27;;;;;;;7.77;7.37;;;39.50;27.80;;;;;;5097502;28;20487;-86
2022/08/13 09:47:54;;;;;;;7.97;7.57;;;39.60;28.00;;;;;;5084751;28;20408;-82
2022/08/13 09:50:23;;;;;;;8.57;8.20;;;39.50;27.60;;;;;;5077363;28;20419;-87
2022/08/13 09:52:51;;;;;;;8.60;8.17;;;38.60;27.30;;;;;;5060017;28;20410;-85
2022/08/13 09:55:17;;;;;;;9.23;8.70;;;38.30;27.40;;;;;;5059934;28;20958;-85
2022/08/13 09:57:59;;;;;;;8.87;8.47;;;38.10;28.50;;;;;;5060335;28;20511;-84
2022/08/13 10:00:27;;;;;;;8.97;8.17;;;37.70;28.40;;;;;;5076186;28;20422;-86
2022/08/13 10:02:57;;;;;;;8.77;8.33;;;37.20;28.50;;;;;;5077869;28;20844;-87
2022/08/13 10:05:25;;;;;;;9.40;8.73;;;37.20;29.30;;;;;;5059063;28;20456;-79
2022/08/13 10:07:52;;;;;;;9.60;9.00;;;37.60;29.00;;;;;;5077333;28;20402;-83
2022/08/13 10:10:18;;;;;;;8.60;8.17;;;37.20;29.00;;;;;;5077661;28;20776;-86
2022/08/13 10:12:44;;;;;;;9.17;8.47;;;38.10;28.80;;;;;;5060105;28;20407;-82
2022/08/13 10:15:10;;;;;;;8.90;8.50;;;38.40;27.90;;;;;;5077497;28;20458;-85
2022/08/13 10:18:05;;;;;;;9.30;8.73;;;35.00;29.80;;;;;;5059510;28;20177;-84
2022/08/13 10:20:39;;;;;;;9.13;8.23;;;34.80;30.20;;;;;;5059303;28;20435;-87
2022/08/13 10:23:07;;;;;;;8.90;8.40;;;35.50;30.30;;;;;;5059396;28;20444;-88
2022/08/13 10:25:33;;;;;;;8.40;7.80;;;35.50;30.80;;;;;;5059987;28;20461;-85
2022/08/13 10:27:59;;;;;;;8.30;7.80;;;;;;;;;;5059964;28;20413;-84
2022/08/13 10:30:27;;;;;;;8.43;7.80;;;34.40;30.90;;;;;;5077489;28;20405;-83
2022/08/13 10:32:54;;;;;;;6.30;5.80;;;32.40;33.50;;;;;;5059634;28;20417;-86
2022/08/13 10:35:21;;;;;;;11.40;6.33;;;32.20;34.00;;;;;;5061440;28;20442;-86
2022/08/13 10:37:53;;;;;;;5.87;5.53;;;31.70;35.10;;;;;;5081521;28;20526;-85
2022/08/13 10:40:20;;;;;;;9.57;8.97;;;31.30;35.30;;;;;;5089437;28;20415;-85
2022/08/13 10:42:45;;;;;;;6.67;6.07;;;30.60;36.00;;;;;;5081010;28;20419;-82
2022/08/13 10:45:13;;;;;;;5.50;5.20;;;30.50;36.40;;;;;;5080385;28;20480;-87
2022/08/13 10:47:50;;;;;;;5.70;5.13;;;30.00;36.80;;;;;;5080671;28;20266;-86
2022/08/13 10:50:18;;;;;;;5.60;5.10;;;29.90;36.20;;;;;;5081130;28;20387;-86
2022/08/13 10:52:43;;;;;;;5.50;5.20;;;30.10;36.20;;;;;;5081423;28;20409;-88
2022/08/13 10:55:13;;;;;;;5.30;5.00;;;29.80;35.50;;;;;;5081048;28;20510;-83
2022/08/13 10:57:41;;;;;;;5.60;5.23;;;29.80;36.40;;;;;;5095730;28;20266;-86
2022/08/13 11:00:09;;;;;;;5.43;5.13;;;30.10;36.50;;;;;;5089248;28;20403;-86
2022/08/13 11:02:37;;;;;;;5.33;4.93;;;30.30;35.40;;;;;;5079792;28;20452;-87
2022/08/13 11:05:06;;;;;;;5.40;5.00;;;30.40;35.50;;;;;;5080513;28;20450;-81
2022/08/13 11:07:34;;;;;;;5.53;5.13;;;30.20;35.10;;;;;;5080083;28;20417;-85
2022/08/13 11:10:01;;;;;;;5.90;5.40;;;30.20;34.00;;;;;;5081395;28;20558;-82
2022/08/13 11:12:27;;;;;;;6.00;5.70;;;30.20;34.10;;;;;;5079833;28;20436;-83
2022/08/13 11:14:53;;;;;;;5.73;5.40;;;32.40;34.90;;;;;;5079515;28;20454;-86
2022/08/13 11:17:19;;;;;;;5.40;5.10;;;30.90;33.30;;;;;;5079120;28;20597;-86
2022/08/13 11:19:46;;;;;;;5.80;5.50;;;30.80;32.40;;;;;;5080919;28;20489;-84
2022/08/13 11:22:12;;;;;;;5.50;5.20;;;30.40;32.40;;;;;;5080090;28;20439;-88
2022/08/13 11:24:38;;;;;;;4.80;4.50;;;30.40;32.50;;;;;;5079029;28;20462;-85
2022/08/13 11:27:04;;;;;;;5.33;4.83;;;30.40;32.50;;;;;;5080331;28;20392;-86
2022/08/13 11:29:30;;;;;;;5.50;5.20;;;30.60;32.40;;;;;;5079820;28;20677;-85
2022/08/13 11:31:57;;;;;;;5.17;4.87;;;30.60;32.30;;;;;;5078463;28;20423;-85
2022/08/13 11:34:23;;;;;;;5.20;4.70;;;30.60;32.40;;;;;;5078171;28;20188;-87
2022/08/13 11:36:48;;;;;;;5.13;4.73;;;30.40;32.50;;;;;;5079703;28;20446;-85
2022/08/13 11:39:15;;;;;;;4.80;4.40;;;30.50;32.90;;;;;;5079546;28;20407;-86
2022/08/13 11:41:40;;;;;;;5.20;4.70;;;30.50;31.70;;;;;;5062259;28;20199;-82
2022/08/13 11:44:06;;;;;;;5.10;4.80;;;30.40;32.10;;;;;;5079286;28;20952;-85
2022/08/13 11:46:32;;;;;;;5.17;4.73;;;30.40;32.30;;;;;;5079877;28;20170;-86
2022/08/13 11:48:57;;;;;;;6.63;5.03;;;30.40;32.20;;;;;;5088834;28;20235;-88
2022/08/13 11:51:23;;;;;;;5.07;4.77;;;30.30;32.10;;;;;;5071113;28;20174;-89
2022/08/13 11:53:48;;;;;;;5.13;4.83;;;30.10;33.20;;;;;;5099589;28;20609;-85
2022/08/13 11:56:14;;;;;;;5.40;5.07;;;;;;;;;;5081219;28;20176;-84
2022/08/13 11:58:40;;;;;;;5.77;5.20;;;30.80;32.10;;;;;;5097668;28;20194;-85
2022/08/13 12:01:06;;;;;;;9.00;5.60;;;30.80;32.40;;;;;;5081503;28;20416;-86
2022/08/13 12:03:34;;;;;;;5.10;4.80;;;30.90;32.60;;;;;;5098976;28;20217;-85
2022/08/13 12:05:59;;;;;;;5.30;4.83;;;30.90;31.60;;;;;;5100476;28;20460;-86
2022/08/13 12:08:25;;;;;;;5.30;4.67;;;31.00;32.40;;;;;;5100262;28;20414;-83
2022/08/13 12:10:51;;;;;;;5.60;5.20;;;31.10;32.30;;;;;;5081114;28;20168;-85
2022/08/13 12:13:17;;;;;;;6.00;5.57;;;31.30;32.10;;;;;;5099501;28;20472;-85
2022/08/13 12:15:42;;;;;;;5.67;5.10;;;31.00;31.50;;;;;;5100135;28;20390;-80
2022/08/13 12:18:13;;;;;;;6.60;5.50;;;31.30;31.70;;;;;;5099407;28;20172;-86
2022/08/13 12:20:38;;;;;;;7.73;5.20;;;31.40;32.20;;;;;;5092431;28;20701;-84
2022/08/13 12:23:04;;;;;;;5.50;5.10;;;31.40;32.40;;;;;;5089734;28;20686;-86
2022/08/13 12:25:31;;;;;;;5.57;5.00;;;31.00;32.50;;;;;;5080241;28;20558;-86
2022/08/13 12:28:27;;;;;;;5.40;5.10;;;31.20;33.30;;;;;;5073348;28;20176;-84
2022/08/13 12:31:02;;;;;;;9.60;4.70;;;30.30;33.00;;;;;;5062935;28;20421;-80
2022/08/13 12:33:29;;;;;;;6.20;5.43;;;30.20;33.60;;;;;;5087006;28;20448;-85
2022/08/13 12:35:54;;;;;;;5.20;4.90;;;30.10;33.40;;;;;;5076834;28;20414;-85
2022/08/13 12:38:20;;;;;;;5.50;5.20;;;30.50;33.10;;;;;;5071066;28;20468;-86
2022/08/13 12:40:47;;;;;;;5.73;5.00;;;31.00;32.30;;;;;;5077386;28;20181;-83
2022/08/13 12:43:13;;;;;;;5.30;4.90;;;31.20;32.60;;;;;;5089557;28;20214;-83
2022/08/13 12:45:42;;;;;;;5.50;5.10;;;31.60;31.40;;;;;;5075091;28;20447;-82
2022/08/13 12:48:10;;;;;;;5.83;4.80;;;31.80;31.00;;;;;;5084636;28;20928;-84
2022/08/13 12:50:37;;;;;;;6.77;5.50;;;31.80;31.00;;;;;;5075924;28;20427;-84
2022/08/13 12:53:03;;;;;;;4.47;4.17;;;31.60;30.40;;;;;;5090005;28;20417;-85
2022/08/13 12:55:29;;;;;;;5.47;4.93;;;31.50;30.80;;;;;;5086419;28;20416;-84
2022/08/13 12:57:55;;;;;;;5.37;4.93;;;31.30;30.80;;;;;;5084392;28;20176;-83
2022/08/13 13:00:21;;;;;;;5.47;5.17;;;30.80;31.20;;;;;;5088977;28;20445;-85
2022/08/13 13:02:47;;;;;;;5.43;5.13;;;30.70;31.90;;;;;;5090264;28;20468;-80
2022/08/13 13:05:14;;;;;;;5.10;4.80;;;30.90;32.30;;;;;;5088268;28;20962;-86
2022/08/13 13:07:41;;;;;;;4.83;4.57;;;31.40;32.00;;;;;;5068456;28;20703;-83
2022/08/13 13:10:08;;;;;;;5.70;5.30;;;31.70;31.50;;;;;;5085055;28;20410;-85